Lake Sumner, New Mexico
Current Conditions -  °F | °C
As of 12:56 PM on Saturday 25 Oct 2014 (Local Time) from K4MR Reporting Station
Clear Clear  
Wind Chill: 80°   Ceiling: Unl
Heat Index: 80°   Visibility: 10mi
Dew Point: 40°   Wind: 14mph
Humidity: 24%   Direction: 230°SW
Pressure: 30.2"   Gusts: 20mph
Location:  34.3001°N, 104.256°W
Report Text: K4MR 251856Z AUTO 23012G17KT 10SM CLR 27/05 A3020 RMK AO2 SLP171 T02690047
Loading
Personal Weather Stations






























Interactive Weather Map New forecast layout! Learn more

10-Day Weather Forecast

Advertisements
Track Severe Weather on mobile